Time;durP1;ratioP1;P1;durP2;ratioP2;P2;SDS_P1;SDS_P2;PMS_P1;PMS_P2;Temp;Humidity;BMP_temperature;BMP_pressure;BME280_temperature;BME280_humidity;BME280_pressure;Samples;Min_cycle;Max_cycle;Signal;HPM_P1;HPM_P2
2023/04/10 00:00:59;;;;;;;35.13;32.90;;;;;;;17.57;51.08;101943.47;5028778;28;20037;-83
2023/04/10 00:03:25;;;;;;;35.42;33.20;;;;;;;17.57;51.12;101940.72;5031148;28;20048;-83
2023/04/10 00:05:53;;;;;;;32.85;30.85;;;;;;;17.53;51.21;101941.22;5021299;28;20045;-84
2023/04/10 00:08:20;;;;;;;34.30;32.00;;;;;;;17.52;51.11;101936.03;5023456;28;20474;-82
2023/04/10 00:10:45;;;;;;;34.38;32.15;;;;;;;17.50;50.64;101935.47;5031104;28;20048;-84
2023/04/10 00:13:10;;;;;;;34.20;31.83;;;;;;;17.46;50.87;101937.91;5022301;28;20038;-84
2023/04/10 00:15:36;;;;;;;35.70;33.50;;;;;;;17.45;50.76;101929.97;5009739;28;20034;-83
2023/04/10 00:18:01;;;;;;;34.28;32.17;;;;;;;17.43;50.94;101926.66;5026497;28;20089;-83
2023/04/10 00:20:26;;;;;;;35.20;32.50;;;;;;;17.42;50.69;101925.84;5021812;28;20034;-83
2023/04/10 00:22:52;;;;;;;35.78;33.38;;;;;;;17.40;50.63;101921.72;5018497;28;20033;-84
2023/04/10 00:25:17;;;;;;;34.08;31.70;;;;;;;17.38;50.69;101915.69;5021443;28;20160;-84
2023/04/10 00:27:43;;;;;;;33.15;31.15;;;;;;;17.36;50.81;101921.44;5028013;28;20037;-85
2023/04/10 00:30:08;;;;;;;34.08;31.98;;;;;;;17.34;50.67;101920.00;5028561;28;20034;-84
2023/04/10 00:32:34;;;;;;;34.88;32.55;;;;;;;17.33;51.04;101918.38;5028475;28;20053;-84
2023/04/10 00:35:00;;;;;;;32.78;30.67;;;;;;;17.31;50.64;101913.16;5009495;28;20060;-83
2023/04/10 00:37:26;;;;;;;33.80;31.58;;;;;;;17.28;50.77;101909.03;5031016;28;20034;-82
2023/04/10 00:39:51;;;;;;;33.17;31.08;;;;;;;17.26;50.44;101908.50;5030097;28;20153;-82
2023/04/10 00:42:17;;;;;;;32.13;30.23;;;;;;;17.25;50.79;101912.28;5029271;28;20526;-84
2023/04/10 00:44:42;;;;;;;32.42;30.42;;;;;;;17.23;50.54;101905.44;5030846;28;20094;-84
2023/04/10 00:47:07;;;;;;;33.65;31.40;;;;;;;17.20;50.68;101906.78;5033062;28;20044;-84
2023/04/10 00:49:33;;;;;;;34.45;32.13;;;;;;;17.18;50.75;101906.22;5035690;28;20470;-83
2023/04/10 00:51:59;;;;;;;32.13;29.98;;;;;;;17.16;50.93;101905.69;5028644;28;20057;-83
2023/04/10 00:54:25;;;;;;;33.33;31.23;;;;;;;17.15;50.71;101904.00;5030236;28;20040;-83
2023/04/10 00:56:51;;;;;;;34.38;31.98;;;;;;;17.13;50.88;101899.88;5027474;28;20042;-84
2023/04/10 00:59:17;;;;;;;30.98;29.17;;;;;;;17.12;50.39;101898.25;5020704;28;20041;-84
2023/04/10 01:01:42;;;;;;;32.17;29.83;;;;;;;17.09;50.49;101899.59;5029444;28;20064;-85
2023/04/10 01:04:08;;;;;;;32.60;30.50;;;;;;;17.08;50.49;101895.19;5044499;28;20074;-85
2023/04/10 01:06:56;;;;;;;31.70;29.75;;;;;;;17.04;50.67;101892.19;5035213;28;20033;-85
2023/04/10 01:09:43;;;;;;;31.47;29.53;;;;;;;17.03;50.69;101889.69;5049975;28;20111;-84
2023/04/10 01:12:31;;;;;;;31.88;29.73;;;;;;;16.98;50.48;101892.38;5034151;28;20120;-85
2023/04/10 01:15:03;;;;;;;;;;;;;;;16.93;50.72;101886.84;5032321;28;20416;-83
2023/04/10 01:17:44;;;;;;;31.63;29.67;;;;;;;16.89;50.42;101889.28;5033591;28;19991;-84
2023/04/10 01:20:22;;;;;;;30.67;28.73;;;;;;;16.88;50.73;101884.91;5024604;28;20026;-84
2023/04/10 01:23:21;;;;;;;28.88;27.08;;;;;;;16.84;50.65;101886.50;5034467;28;20030;-81
2023/04/10 01:25:56;;;;;;;30.65;28.70;;;;;;;16.82;50.39;101878.56;5020233;28;20056;-84
2023/04/10 01:28:45;;;;;;;30.77;28.83;;;;;;;16.80;50.71;101874.44;5019202;28;20030;-84
2023/04/10 01:31:18;;;;;;;30.65;28.85;;;;;;;16.79;50.54;101876.38;5027937;28;20061;-84
2023/04/10 01:33:49;;;;;;;31.67;29.77;;;;;;;16.79;50.57;101865.44;5019928;28;20054;-83
2023/04/10 01:36:30;;;;;;;30.13;28.40;;;;;;;16.78;50.37;101869.28;5017244;28;20104;-84
2023/04/10 01:38:57;;;;;;;30.05;28.08;;;;;;;16.77;50.86;101862.13;5024779;28;20081;-85
2023/04/10 01:41:25;;;;;;;28.67;27.05;;;;;;;16.76;50.68;101857.75;5043658;28;20469;-85
2023/04/10 01:43:52;;;;;;;29.80;28.05;;;;;;;16.74;50.53;101853.63;5036368;28;20120;-84
2023/04/10 01:46:19;;;;;;;31.13;29.00;;;;;;;16.72;50.55;101848.41;5035570;28;20029;-83
2023/04/10 01:48:46;;;;;;;30.77;28.70;;;;;;;16.71;50.60;101844.06;5025943;28;20029;-85
2023/04/10 01:51:13;;;;;;;29.77;27.83;;;;;;;16.70;50.52;101852.50;5044475;28;20036;-83
2023/04/10 01:53:40;;;;;;;31.08;29.17;;;;;;;16.69;50.33;101846.22;5034903;28;20125;-84
2023/04/10 01:56:07;;;;;;;29.55;27.85;;;;;;;16.69;50.65;101839.94;5026699;28;20034;-86
2023/04/10 01:58:34;;;;;;;30.95;29.00;;;;;;;16.65;50.30;101834.97;5029519;28;20061;-85
2023/04/10 02:00:59;;;;;;;30.52;28.75;;;;;;;16.64;50.45;101838.78;5025470;28;20045;-86
2023/04/10 02:03:24;;;;;;;28.45;26.45;;;;;;;16.62;50.21;101827.31;5038342;28;20033;-84
2023/04/10 02:06:07;;;;;;;29.55;27.80;;;;;;;16.60;50.54;101828.66;5033392;28;20128;-85
2023/04/10 02:08:40;;;;;;;30.55;28.65;;;;;;;16.58;50.20;101828.91;5043305;28;20135;-84
2023/04/10 02:11:31;;;;;;;29.73;27.92;;;;;;;16.55;50.56;101823.13;5027552;28;20037;-84
2023/04/10 02:14:00;;;;;;;29.15;27.42;;;;;;;16.52;50.66;101834.56;5032175;28;20040;-84
2023/04/10 02:16:28;;;;;;;29.20;27.25;;;;;;;16.51;50.80;101832.94;5034398;28;20025;-84
2023/04/10 02:18:55;;;;;;;28.48;26.85;;;;;;;16.51;50.62;101831.03;5033267;28;20025;-84
2023/04/10 02:21:20;;;;;;;30.58;28.73;;;;;;;16.50;50.35;101831.25;5034745;28;20034;-85
2023/04/10 02:23:46;;;;;;;29.80;27.90;;;;;;;16.48;50.54;101819.78;5025553;28;20083;-82
2023/04/10 02:26:14;;;;;;;30.25;28.20;;;;;;;16.47;50.59;101820.88;5033644;28;20129;-82
2023/04/10 02:28:40;;;;;;;29.17;27.37;;;;;;;16.46;50.79;101817.31;5031298;28;20026;-82
2023/04/10 02:31:06;;;;;;;28.73;26.95;;;;;;;16.44;50.63;101816.75;5021017;28;20056;-80
2023/04/10 02:33:31;;;;;;;30.75;28.85;;;;;;;16.42;50.25;101824.34;5028303;28;20152;-80
2023/04/10 02:35:56;;;;;;;29.75;27.83;;;;;;;16.41;50.49;101820.00;5034152;28;20458;-83
2023/04/10 02:38:22;;;;;;;28.85;27.20;;;;;;;16.39;50.54;101820.25;5033778;28;20453;-83
2023/04/10 02:40:49;;;;;;;30.73;28.60;;;;;;;16.37;50.46;101819.66;5027763;28;20038;-83
2023/04/10 02:43:14;;;;;;;29.48;27.58;;;;;;;16.36;50.65;101811.75;5035552;28;20067;-82
2023/04/10 02:45:40;;;;;;;30.77;28.88;;;;;;;16.34;50.74;101825.63;5055360;28;20053;-80
2023/04/10 02:48:06;;;;;;;29.15;27.40;;;;;;;16.33;50.73;101834.91;5066824;28;20024;-82
2023/04/10 02:50:31;;;;;;;28.80;27.08;;;;;;;16.31;50.72;101828.88;5059232;28;20033;-81
2023/04/10 02:52:57;;;;;;;27.85;26.15;;;;;;;16.30;50.73;101827.22;5053282;28;20017;-81
2023/04/10 02:55:22;;;;;;;29.08;27.23;;;;;;;16.29;50.43;101819.31;5056022;28;20138;-81
2023/04/10 02:57:47;;;;;;;30.00;28.13;;;;;;;16.26;50.71;101819.81;5059635;28;20063;-80
2023/04/10 03:00:13;;;;;;;28.25;26.35;;;;;;;16.25;50.37;101816.25;5053915;28;20048;-80
2023/04/10 03:02:39;;;;;;;29.73;27.85;;;;;;;16.24;50.85;101822.78;5046311;28;20101;-81
2023/04/10 03:05:05;;;;;;;28.30;26.67;;;;;;;16.22;50.88;101814.03;5038112;28;20017;-80
2023/04/10 03:07:31;;;;;;;27.55;26.05;;;;;;;16.20;50.65;101825.22;5065785;28;20056;-82
2023/04/10 03:09:56;;;;;;;27.90;26.00;;;;;;;16.18;50.49;101823.81;5062816;28;20033;-82
2023/04/10 03:12:22;;;;;;;28.65;26.88;;;;;;;16.18;50.70;101832.00;5057981;28;20022;-80
2023/04/10 03:14:47;;;;;;;29.55;27.65;;;;;;;16.17;50.62;101824.88;5064300;28;20038;-82
2023/04/10 03:17:13;;;;;;;28.33;26.67;;;;;;;16.15;50.73;101824.31;5055300;28;20033;-81
2023/04/10 03:19:38;;;;;;;28.23;26.45;;;;;;;16.13;50.82;101824.56;5037590;28;20037;-80
2023/04/10 03:22:03;;;;;;;28.38;26.67;;;;;;;16.12;50.51;101822.09;5051330;28;20029;-82
2023/04/10 03:24:29;;;;;;;30.95;28.85;;;;;;;16.10;50.80;101816.91;5047484;28;20466;-83
2023/04/10 03:26:56;;;;;;;29.63;27.73;;;;;;;16.10;50.45;101813.34;5030546;28;20041;-83
2023/04/10 03:29:21;;;;;;;27.95;26.13;;;;;;;16.07;50.84;101805.69;5043601;28;20072;-81
2023/04/10 03:31:47;;;;;;;30.08;28.05;;;;;;;16.06;50.61;101813.03;5032989;28;20588;-81
2023/04/10 03:34:12;;;;;;;28.90;27.25;;;;;;;16.05;50.83;101808.69;5041890;28;20056;-81
2023/04/10 03:36:38;;;;;;;27.83;26.20;;;;;;;16.02;50.81;101809.97;5019113;28;20456;-80
2023/04/10 03:39:03;;;;;;;28.95;27.05;;;;;;;16.00;50.59;101798.53;5022790;28;20040;-82
2023/04/10 03:41:29;;;;;;;27.50;25.85;;;;;;;15.99;50.53;101799.59;5020411;28;20029;-82
2023/04/10 03:43:55;;;;;;;28.90;27.05;;;;;;;15.97;50.67;101796.28;5031718;28;20072;-81
2023/04/10 03:46:21;;;;;;;27.75;25.98;;;;;;;15.97;50.58;101787.28;5014741;28;20045;-82
2023/04/10 03:48:48;;;;;;;27.42;25.73;;;;;;;15.94;50.51;101788.63;5047842;28;20025;-81
2023/04/10 03:51:13;;;;;;;28.13;26.38;;;;;;;15.91;50.65;101786.41;5055406;28;20543;-81
2023/04/10 03:53:39;;;;;;;27.10;25.42;;;;;;;15.91;50.96;101789.13;5035291;28;20037;-79
2023/04/10 03:56:05;;;;;;;28.27;26.48;;;;;;;15.89;50.46;101787.75;5026629;28;20120;-82
2023/04/10 03:58:30;;;;;;;29.25;27.55;;;;;;;15.88;50.53;101786.94;5031124;28;20133;-82
2023/04/10 04:00:56;;;;;;;29.42;27.52;;;;;;;15.87;50.97;101784.44;5030501;28;20127;-81
2023/04/10 04:03:21;;;;;;;28.70;27.00;;;;;;;15.86;50.65;101780.06;5025956;28;20037;-82
2023/04/10 04:05:47;;;;;;;29.33;27.45;;;;;;;15.84;50.94;101776.78;5031265;28;20531;-82
2023/04/10 04:08:12;;;;;;;29.13;27.33;;;;;;;15.82;50.95;101771.56;5036046;28;20040;-82
2023/04/10 04:10:38;;;;;;;28.83;27.02;;;;;;;15.81;50.52;101772.66;5031113;28;20048;-82
2023/04/10 04:13:03;;;;;;;28.98;27.27;;;;;;;15.79;50.45;101766.63;5037100;28;20127;-82
2023/04/10 04:15:29;;;;;;;27.33;25.58;;;;;;;15.78;50.88;101768.53;5029281;28;20042;-83
2023/04/10 04:17:56;;;;;;;29.33;27.10;;;;;;;15.76;50.76;101762.50;5015891;28;20038;-82
2023/04/10 04:20:21;;;;;;;27.40;25.90;;;;;;;15.75;50.63;101762.78;5032485;28;20042;-82
2023/04/10 04:22:46;;;;;;;28.23;26.33;;;;;;;15.73;50.80;101754.84;5030910;28;20038;-82
2023/04/10 04:25:12;;;;;;;26.55;25.05;;;;;;;15.71;50.88;101759.72;5025311;28;20034;-84
2023/04/10 04:27:37;;;;;;;27.17;25.48;;;;;;;15.70;50.88;101755.38;5015672;28;20042;-81
2023/04/10 04:30:03;;;;;;;27.27;25.60;;;;;;;15.70;50.60;101751.78;5024417;28;20666;-81
2023/04/10 04:32:29;;;;;;;28.63;26.50;;;;;;;15.67;50.43;101755.81;5023998;28;20042;-83
2023/04/10 04:34:54;;;;;;;29.00;27.05;;;;;;;15.65;50.73;101757.13;5002707;28;20125;-82
2023/04/10 04:37:19;;;;;;;27.90;26.20;;;;;;;15.64;50.54;101750.88;5024552;28;20034;-83
2023/04/10 04:39:45;;;;;;;28.10;26.48;;;;;;;15.63;50.50;101751.16;5016244;28;20539;-81
2023/04/10 04:42:10;;;;;;;27.70;26.00;;;;;;;15.62;50.89;101760.38;5030112;28;20033;-82
2023/04/10 04:44:38;;;;;;;28.05;26.25;;;;;;;15.61;50.72;101750.56;5031070;28;20109;-81
2023/04/10 04:47:04;;;;;;;27.27;25.67;;;;;;;15.58;50.73;101741.00;5030272;28;20291;-82
2023/04/10 04:49:29;;;;;;;28.48;26.75;;;;;;;15.57;50.71;101759.25;5022765;28;20478;-80
2023/04/10 04:51:55;;;;;;;28.83;27.00;;;;;;;15.56;50.49;101760.31;5021729;28;20060;-83
2023/04/10 04:54:20;;;;;;;27.63;25.92;;;;;;;15.54;50.66;101756.19;5019147;28;20025;-83
2023/04/10 04:56:45;;;;;;;28.95;27.20;;;;;;;15.53;50.62;101755.38;5017562;28;20037;-81
2023/04/10 04:59:11;;;;;;;28.55;26.25;;;;;;;15.52;50.57;101745.56;5019980;28;20549;-82
2023/04/10 05:01:36;;;;;;;28.50;26.60;;;;;;;15.50;50.65;101741.44;5023637;28;20079;-84
2023/04/10 05:04:02;;;;;;;27.67;25.88;;;;;;;15.49;50.39;101737.06;5023852;28;20482;-83
2023/04/10 05:06:28;;;;;;;27.13;25.58;;;;;;;15.47;50.85;101740.03;5026256;28;20092;-83
2023/04/10 05:08:53;;;;;;;28.70;26.80;;;;;;;15.46;50.86;101732.94;5023007;28;20065;-82
2023/04/10 05:11:18;;;;;;;25.52;23.98;;;;;;;15.44;50.71;101729.63;5043089;28;20095;-83
2023/04/10 05:13:44;;;;;;;27.17;25.58;;;;;;;15.43;50.70;101719.84;5029110;28;20075;-82
2023/04/10 05:16:09;;;;;;;26.75;25.10;;;;;;;15.41;50.81;101713.81;5031309;28;20034;-83
2023/04/10 05:18:35;;;;;;;27.73;26.00;;;;;;;15.40;50.80;101719.53;5034855;28;20034;-83
2023/04/10 05:21:00;;;;;;;26.70;25.10;;;;;;;15.39;50.61;101720.56;5028567;28;20033;-83
2023/04/10 05:23:26;;;;;;;27.60;25.90;;;;;;;15.38;50.61;101721.66;5029549;28;20061;-82
2023/04/10 05:25:51;;;;;;;28.42;26.45;;;;;;;15.36;50.57;101724.63;5029287;28;20469;-83
2023/04/10 05:28:17;;;;;;;26.30;24.70;;;;;;;15.34;50.77;101724.88;5038264;28;20495;-82
2023/04/10 05:30:42;;;;;;;28.85;26.98;;;;;;;15.33;50.91;101720.50;5027568;28;20079;-82
2023/04/10 05:33:08;;;;;;;27.15;25.45;;;;;;;15.31;50.63;101719.94;5025089;28;20140;-82
2023/04/10 05:35:33;;;;;;;26.35;24.75;;;;;;;15.30;50.89;101728.38;5039003;28;20480;-82
2023/04/10 05:37:59;;;;;;;28.20;26.40;;;;;;;15.30;50.53;101725.63;5031274;28;20087;-83
2023/04/10 05:40:25;;;;;;;24.42;22.95;;;;;;;15.29;50.80;101729.41;5029836;28;20115;-83
2023/04/10 05:42:51;;;;;;;27.52;25.77;;;;;;;15.28;50.68;101731.31;5029656;28;20040;-80
2023/04/10 05:45:17;;;;;;;27.95;26.05;;;;;;;15.27;50.98;101731.56;5021379;28;20033;-82
2023/04/10 05:47:43;;;;;;;26.70;24.98;;;;;;;15.27;50.53;101742.44;5034646;28;20044;-84
2023/04/10 05:50:09;;;;;;;28.30;26.33;;;;;;;15.23;50.60;101739.41;5038432;28;20042;-83
2023/04/10 05:52:34;;;;;;;27.10;25.25;;;;;;;15.22;50.73;101740.50;5031985;28;20482;-82
2023/04/10 05:55:00;;;;;;;28.33;26.52;;;;;;;15.23;50.78;101738.59;5031912;28;20040;-82
2023/04/10 05:57:25;;;;;;;26.20;24.60;;;;;;;15.20;50.73;101733.66;5034809;28;20087;-83
2023/04/10 05:59:50;;;;;;;24.88;23.27;;;;;;;15.19;50.33;101737.44;5033505;28;20442;-80
2023/04/10 06:02:16;;;;;;;25.77;24.15;;;;;;;15.18;50.94;101741.25;5031686;28;20025;-84
2023/04/10 06:04:41;;;;;;;27.17;25.42;;;;;;;15.16;50.79;101741.47;5025854;28;20108;-83
2023/04/10 06:07:07;;;;;;;27.95;26.17;;;;;;;15.15;50.55;101732.50;5034063;28;20120;-83
2023/04/10 06:09:32;;;;;;;26.45;24.85;;;;;;;15.14;50.55;101727.28;5042678;28;20033;-83
2023/04/10 06:11:57;;;;;;;27.58;25.90;;;;;;;15.13;50.73;101725.66;5021715;28;20066;-84
2023/04/10 06:14:23;;;;;;;26.30;24.60;;;;;;;15.12;50.79;101718.56;5032645;28;20057;-84
2023/04/10 06:16:48;;;;;;;28.60;26.63;;;;;;;15.11;50.77;101717.72;5028192;28;20037;-83
2023/04/10 06:19:14;;;;;;;26.20;24.58;;;;;;;15.11;50.71;101716.91;5030006;28;20041;-83
2023/04/10 06:21:39;;;;;;;26.42;24.83;;;;;;;15.10;50.95;101707.94;5015059;28;20044;-83
2023/04/10 06:24:05;;;;;;;27.90;26.08;;;;;;;15.10;50.90;101707.13;5048566;28;20049;-82
2023/04/10 06:26:30;;;;;;;25.58;24.08;;;;;;;15.08;50.98;101695.66;5028158;28;20076;-82
2023/04/10 06:28:56;;;;;;;26.50;24.90;;;;;;;15.07;50.56;101694.00;5022031;28;20045;-82
2023/04/10 06:31:21;;;;;;;26.15;23.95;;;;;;;15.06;50.81;101693.16;5014321;28;20076;-83
2023/04/10 06:33:48;;;;;;;26.52;24.85;;;;;;;15.06;50.78;101687.72;5022319;28;20497;-82
2023/04/10 06:36:13;;;;;;;27.33;25.55;;;;;;;15.05;50.68;101682.56;5012659;28;20034;-83
2023/04/10 06:38:39;;;;;;;25.25;23.75;;;;;;;15.04;50.62;101683.59;5031522;28;20044;-83
2023/04/10 06:41:05;;;;;;;28.45;26.55;;;;;;;15.03;50.58;101682.78;5032908;28;20041;-83
2023/04/10 06:43:33;;;;;;;28.33;26.33;;;;;;;15.03;50.65;101668.38;5028219;28;20068;-83
2023/04/10 06:45:58;;;;;;;26.10;24.37;;;;;;;15.01;50.65;101665.88;5028541;28;20037;-83
2023/04/10 06:48:24;;;;;;;27.20;25.40;;;;;;;15.00;50.85;101666.97;5037096;28;20756;-81
2023/04/10 06:50:49;;;;;;;27.13;25.10;;;;;;;15.00;50.99;101661.53;5032825;28;20414;-82
2023/04/10 06:53:15;;;;;;;26.50;24.88;;;;;;;14.99;50.98;101659.84;5030912;28;20034;-82
2023/04/10 06:55:40;;;;;;;25.80;23.98;;;;;;;14.98;50.87;101652.78;5032032;28;20501;-81
2023/04/10 06:58:05;;;;;;;26.23;24.63;;;;;;;14.97;50.56;101653.88;5028210;28;20485;-83
2023/04/10 07:00:31;;;;;;;25.92;24.30;;;;;;;14.96;50.99;101645.94;5023506;28;20033;-84
2023/04/10 07:02:56;;;;;;;27.17;25.30;;;;;;;14.97;50.76;101639.41;5053368;28;20660;-80
2023/04/10 07:05:22;;;;;;;25.73;24.02;;;;;;;14.96;50.88;101641.31;5033074;28;20030;-84
2023/04/10 07:07:49;;;;;;;25.52;23.98;;;;;;;14.95;50.93;101631.53;5033015;28;20045;-82
2023/04/10 07:10:15;;;;;;;25.80;24.23;;;;;;;14.95;50.79;101633.44;5024990;28;20045;-81
2023/04/10 07:12:40;;;;;;;26.52;24.20;;;;;;;14.94;50.74;101624.41;5038734;28;20037;-83
2023/04/10 07:15:06;;;;;;;28.10;25.85;;;;;;;14.93;50.62;101625.50;5018996;28;20030;-83
2023/04/10 07:17:32;;;;;;;26.17;24.50;;;;;;;14.92;50.70;101619.25;5043112;28;20044;-82
2023/04/10 07:19:58;;;;;;;26.75;24.75;;;;;;;14.92;50.87;101619.25;5016402;28;20033;-80
2023/04/10 07:22:23;;;;;;;26.88;25.08;;;;;;;14.92;50.84;101619.25;5043066;28;20546;-83
2023/04/10 07:24:49;;;;;;;24.55;23.08;;;;;;;14.92;50.92;101611.09;5032182;28;20084;-83
2023/04/10 07:27:15;;;;;;;26.63;24.73;;;;;;;14.92;50.79;101608.38;5027338;28;20576;-82
2023/04/10 07:29:41;;;;;;;26.27;24.60;;;;;;;14.92;50.74;101602.09;5030308;28;20074;-83
2023/04/10 07:32:06;;;;;;;25.27;23.67;;;;;;;14.92;50.70;101604.81;5026533;28;20049;-81
2023/04/10 07:34:32;;;;;;;26.50;24.70;;;;;;;14.92;50.84;101602.94;5031533;28;20125;-82
2023/04/10 07:36:57;;;;;;;25.45;23.65;;;;;;;14.92;50.78;101589.31;5034849;28;20055;-84
2023/04/10 07:39:23;;;;;;;26.48;24.67;;;;;;;14.92;50.75;101586.59;5024331;28;20065;-84
2023/04/10 07:41:48;;;;;;;27.52;25.70;;;;;;;14.93;51.01;101577.34;5030141;28;20132;-84
2023/04/10 07:44:14;;;;;;;28.17;26.15;;;;;;;14.94;50.92;101575.44;5030896;28;20108;-83
2023/04/10 07:46:40;;;;;;;28.13;26.23;;;;;;;14.96;50.95;101567.06;5026326;28;20244;-82
2023/04/10 07:49:05;;;;;;;28.05;26.23;;;;;;;14.97;50.74;101566.81;5024831;28;20060;-83
2023/04/10 07:51:31;;;;;;;26.83;24.75;;;;;;;14.97;50.67;101565.97;5037498;28;20044;-83
2023/04/10 07:53:56;;;;;;;26.05;24.35;;;;;;;14.99;50.58;101561.09;5027871;28;20040;-84
2023/04/10 07:56:22;;;;;;;26.98;25.10;;;;;;;15.00;50.82;101558.13;5036736;28;20175;-83
2023/04/10 07:58:48;;;;;;;26.05;24.45;;;;;;;15.01;50.60;101562.50;5021727;28;20033;-84
2023/04/10 08:01:14;;;;;;;30.38;27.77;;;;;;;15.02;50.66;101564.16;5027313;28;20108;-82
2023/04/10 08:03:41;;;;;;;26.10;24.25;;;;;;;15.01;50.72;101558.97;5034622;28;20477;-83
2023/04/10 08:06:10;;;;;;;26.50;24.75;;;;;;;15.04;50.80;101555.72;5032550;28;20046;-83
2023/04/10 08:08:37;;;;;;;27.75;26.05;;;;;;;15.04;50.91;101550.28;5020750;28;20033;-80
2023/04/10 08:11:06;;;;;;;25.50;23.85;;;;;;;15.04;50.97;101542.13;5032510;28;20037;-79
2023/04/10 08:13:32;;;;;;;;;;;;;;;15.02;50.81;101545.09;5028410;28;20560;-82
2023/04/10 08:15:57;;;;;;;25.05;23.35;;;;;;;15.02;50.93;101549.72;5025762;28;19944;-82
2023/04/10 08:18:22;;;;;;;27.00;25.30;;;;;;;15.02;50.63;101544.25;5029948;28;20104;-82
2023/04/10 08:20:48;;;;;;;25.40;23.80;;;;;;;15.03;50.65;101546.75;5012799;28;20045;-81
2023/04/10 08:23:13;;;;;;;26.55;24.75;;;;;;;15.04;50.94;101542.13;5032341;28;20029;-79
2023/04/10 08:25:39;;;;;;;26.60;24.88;;;;;;;15.06;50.78;101545.41;5034130;28;20117;-80
2023/04/10 08:28:04;;;;;;;26.20;24.52;;;;;;;15.07;50.89;101542.44;5028067;28;20402;-78
2023/04/10 08:30:29;;;;;;;26.70;24.75;;;;;;;15.09;51.00;101544.91;5027987;28;20041;-80
2023/04/10 08:32:56;;;;;;;26.23;24.33;;;;;;;15.10;50.96;101539.22;5030491;28;20079;-80
2023/04/10 08:35:21;;;;;;;28.02;26.02;;;;;;;15.11;50.95;101529.16;5026706;28;20100;-80
2023/04/10 08:37:47;;;;;;;27.05;25.23;;;;;;;15.12;50.70;101523.47;5040324;28;20091;-80
2023/04/10 08:40:12;;;;;;;26.02;24.35;;;;;;;15.13;50.92;101525.09;5014655;28;20428;-80
2023/04/10 08:42:38;;;;;;;27.55;25.65;;;;;;;15.15;50.89;101522.94;5030023;28;20044;-80
2023/04/10 08:45:03;;;;;;;26.48;24.85;;;;;;;15.17;50.79;101522.72;5025011;28;20663;-80
2023/04/10 08:47:36;;;;;;;27.30;25.20;;;;;;;15.18;50.83;101520.81;5019833;28;20039;-82
2023/04/10 08:50:05;;;;;;;24.75;23.38;;;;;;;15.18;50.89;101510.72;5025572;28;20046;-82
2023/04/10 08:52:33;;;;;;;26.55;24.75;;;;;;;15.21;50.88;101518.38;5019476;28;20613;-81
2023/04/10 08:55:04;;;;;;;28.30;26.40;;;;;;;15.23;51.07;101518.13;5040434;28;20034;-81
2023/04/10 08:57:31;;;;;;;26.73;24.92;;;;;;;15.24;50.87;101509.69;5015578;28;20038;-82
2023/04/10 08:59:57;;;;;;;26.40;24.80;;;;;;;15.26;50.91;101512.19;5020783;28;20068;-81
2023/04/10 09:02:23;;;;;;;27.10;25.40;;;;;;;15.26;50.65;101504.03;5022736;28;20124;-82
2023/04/10 09:04:51;;;;;;;26.95;25.15;;;;;;;15.29;50.72;101508.94;5023147;28;20040;-81
2023/04/10 09:07:17;;;;;;;29.23;26.88;;;;;;;15.30;50.67;101499.72;5023143;28;20124;-81
2023/04/10 09:09:43;;;;;;;25.58;23.98;;;;;;;15.33;50.91;101504.66;5018378;28;20125;-81
2023/04/10 09:12:08;;;;;;;28.58;26.65;;;;;;;15.34;50.77;101509.00;5040206;28;20393;-82
2023/04/10 09:14:35;;;;;;;26.08;24.55;;;;;;;15.34;50.84;101504.38;5028238;28;20041;-83
2023/04/10 09:17:18;;;;;;;27.25;25.25;;;;;;;15.38;50.89;101509.31;5024086;28;20112;-83
2023/04/10 09:19:46;;;;;;;25.90;24.27;;;;;;;15.39;51.05;101494.63;5017604;28;20034;-84
2023/04/10 09:22:12;;;;;;;27.77;25.98;;;;;;;15.40;50.94;101488.94;5019057;28;20390;-81
2023/04/10 09:24:40;;;;;;;24.67;23.23;;;;;;;15.43;50.99;101485.69;5031521;28;20479;-84
2023/04/10 09:27:06;;;;;;;24.63;23.13;;;;;;;15.45;50.98;101477.28;5040144;28;20045;-84
2023/04/10 09:29:43;;;;;;;27.02;25.15;;;;;;;15.47;50.78;101475.94;5021720;28;20030;-84
2023/04/10 09:32:09;;;;;;;27.10;25.30;;;;;;;15.47;50.95;101461.47;5015458;28;20022;-84
2023/04/10 09:34:51;;;;;;;25.80;24.27;;;;;;;15.48;50.68;101458.50;5022493;28;20096;-83
2023/04/10 09:37:19;;;;;;;26.92;25.10;;;;;;;15.52;50.90;101458.81;5034555;28;20037;-85
2023/04/10 09:39:45;;;;;;;27.95;26.25;;;;;;;15.53;50.93;101466.72;5026804;28;20072;-86
2023/04/10 09:42:11;;;;;;;27.85;25.58;;;;;;;15.56;50.64;101465.38;5016931;28;20065;-83
2023/04/10 09:44:38;;;;;;;26.73;25.23;;;;;;;15.59;50.93;101462.16;5022399;28;20044;-85
2023/04/10 09:47:13;;;;;;;26.67;24.98;;;;;;;15.61;51.16;101470.06;5037827;28;20037;-86
2023/04/10 09:49:47;;;;;;;27.25;25.55;;;;;;;15.62;51.14;101456.16;5029833;28;20379;-86
2023/04/10 09:52:37;;;;;;;26.17;24.48;;;;;;;15.64;50.93;101454.03;5033262;28;21219;-85
2023/04/10 09:55:04;;;;;;;25.20;23.70;;;;;;;15.66;51.03;101440.97;5025214;28;20069;-85
2023/04/10 09:57:32;;;;;;;29.48;27.42;;;;;;;15.69;51.01;101443.19;5021806;28;20053;-86
2023/04/10 09:59:59;;;;;;;27.83;26.02;;;;;;;15.70;50.83;101433.97;5032608;28;20045;-85
2023/04/10 10:02:28;;;;;;;29.08;27.23;;;;;;;15.73;51.14;101428.00;5022766;28;20043;-86
2023/04/10 10:04:54;;;;;;;;;;;;;;;15.71;51.21;101427.41;5032869;28;20042;-83
2023/04/10 10:07:21;;;;;;;26.50;24.52;;;;;;;15.74;51.33;101416.00;5023133;28;19914;-85
2023/04/10 10:09:49;;;;;;;25.70;24.13;;;;;;;15.77;51.49;101422.84;5023742;28;20033;-83
2023/04/10 10:12:33;;;;;;;26.02;24.33;;;;;;;15.79;51.19;101420.66;5027533;28;20100;-83
2023/04/10 10:15:10;;;;;;;27.15;25.45;;;;;;;15.82;51.15;101420.13;5023991;28;20091;-85
2023/04/10 10:17:42;;;;;;;28.75;26.75;;;;;;;15.85;51.15;101418.81;5035771;28;20745;-85
2023/04/10 10:20:10;;;;;;;25.95;24.40;;;;;;;15.89;51.23;101411.75;5028464;28;20061;-85
2023/04/10 10:22:36;;;;;;;28.27;26.50;;;;;;;15.92;51.31;101403.06;5032829;28;20037;-85
2023/04/10 10:25:03;;;;;;;28.45;26.58;;;;;;;15.95;51.34;101399.78;5032543;28;20033;-83
2023/04/10 10:27:35;;;;;;;27.20;25.52;;;;;;;15.97;51.67;101397.63;5034489;28;20029;-85
2023/04/10 10:30:02;;;;;;;28.83;26.80;;;;;;;15.99;51.48;101398.19;5028600;28;20052;-83
2023/04/10 10:32:29;;;;;;;28.50;26.70;;;;;;;16.00;51.42;101381.59;5021971;28;20042;-87
2023/04/10 10:34:56;;;;;;;27.48;25.88;;;;;;;16.05;51.29;101382.69;5024726;28;20473;-83
2023/04/10 10:37:22;;;;;;;27.40;25.65;;;;;;;16.07;51.70;101377.81;5018197;28;20465;-85
2023/04/10 10:40:15;;;;;;;27.27;25.67;;;;;;;16.09;51.68;101365.56;5026780;28;20037;-83
2023/04/10 10:42:55;;;;;;;27.25;25.55;;;;;;;16.12;51.56;101362.28;5032720;28;20180;-86
2023/04/10 10:45:25;;;;;;;27.90;26.25;;;;;;;16.15;51.95;101360.94;5022726;28;20030;-83
2023/04/10 10:47:53;;;;;;;26.17;24.70;;;;;;;16.16;51.61;101366.16;5015316;28;20030;-88
2023/04/10 10:50:19;;;;;;;28.42;26.63;;;;;;;16.20;51.61;101361.81;5025596;28;20029;-80
2023/04/10 10:52:51;;;;;;;26.10;24.58;;;;;;;16.23;51.65;101355.81;5030850;28;20496;-87
2023/04/10 10:55:43;;;;;;;27.33;25.83;;;;;;;16.27;52.15;101349.84;5024809;28;20033;-69
2023/04/10 10:58:10;;;;;;;28.92;27.13;;;;;;;16.30;51.43;101347.38;5031983;28;20444;-85
2023/04/10 11:00:50;;;;;;;26.92;25.27;;;;;;;16.34;51.71;101339.50;5027878;28;20440;-81
2023/04/10 11:03:15;;;;;;;28.50;26.83;;;;;;;16.40;51.77;101333.81;5025450;28;20038;-84
2023/04/10 11:05:52;;;;;;;29.20;27.27;;;;;;;16.42;51.93;101323.44;5016926;28;20030;-84
2023/04/10 11:08:43;;;;;;;27.13;25.38;;;;;;;16.47;52.00;101313.66;5013173;28;20034;-83
2023/04/10 11:11:11;;;;;;;28.08;26.27;;;;;;;16.50;51.52;101319.38;5035764;28;20041;-83